APG715 RPLL-RPVK
Flight info
| Callsign | APG715 |
|---|---|
| Flight time | 0h 42m |
| Altitude | 29000 |
| Route | VERDE2R VERDE W24 TAPER TAPER1A |
| Aircraft | A320/M-SDE3FGHIRWY/LB1 |
Departure
| Time | 2026-05-04 07:55 |
|---|---|
| Airport | Ninoy Aquino International Airport (RPLL) |
Arrival
| Time | 2026-05-04 08:37 |
|---|---|
| Airport | Kalibo International Airport (RPVK) |
| Time | Latitude | Longitude | Altitude | Speed | Heading |
|---|---|---|---|---|---|
| 2026-05-04 07:33 | 14.50855 | 121.01279 | 81 ft | 0 kts | 330° |
| 2026-05-04 07:44 | 14.50848 | 121.01283 | 81 ft | 2 kts | 330° |
| 2026-05-04 07:44 | 14.50835 | 121.01291 | 81 ft | 2 kts | 330° |
| 2026-05-04 07:44 | 14.50822 | 121.01299 | 81 ft | 2 kts | 330° |
| 2026-05-04 07:44 | 14.50812 | 121.01305 | 81 ft | 0 kts | 330° |
| 2026-05-04 07:45 | 14.50800 | 121.01313 | 81 ft | 2 kts | 314° |
| 2026-05-04 07:45 | 14.50790 | 121.01325 | 81 ft | 2 kts | 300° |
| 2026-05-04 07:45 | 14.50784 | 121.01341 | 81 ft | 2 kts | 284° |
| 2026-05-04 07:45 | 14.50782 | 121.01356 | 81 ft | 2 kts | 268° |
| 2026-05-04 07:46 | 14.50784 | 121.01372 | 81 ft | 2 kts | 252° |
| 2026-05-04 07:46 | 14.50788 | 121.01382 | 82 ft | 0 kts | 242° |
| 2026-05-04 07:46 | 14.50791 | 121.01388 | 82 ft | 0 kts | 239° |
| 2026-05-04 07:49 | 14.50631 | 121.01250 | 81 ft | 9 kts | 240° |
| 2026-05-04 07:49 | 14.50595 | 121.01187 | 81 ft | 10 kts | 242° |
| 2026-05-04 07:49 | 14.50561 | 121.01125 | 81 ft | 9 kts | 240° |
| 2026-05-04 07:50 | 14.50525 | 121.01060 | 81 ft | 10 kts | 239° |
| 2026-05-04 07:50 | 14.50485 | 121.00991 | 81 ft | 11 kts | 239° |
| 2026-05-04 07:50 | 14.50443 | 121.00914 | 81 ft | 12 kts | 241° |
| 2026-05-04 07:50 | 14.50397 | 121.00829 | 81 ft | 13 kts | 239° |
| 2026-05-04 07:51 | 14.50347 | 121.00741 | 81 ft | 14 kts | 240° |
| 2026-05-04 07:51 | 14.50296 | 121.00646 | 81 ft | 15 kts | 241° |
| 2026-05-04 07:51 | 14.50242 | 121.00549 | 81 ft | 15 kts | 240° |
| 2026-05-04 07:51 | 14.50185 | 121.00449 | 81 ft | 16 kts | 240° |
| 2026-05-04 07:52 | 14.50127 | 121.00343 | 81 ft | 16 kts | 240° |
| 2026-05-04 07:52 | 14.50066 | 121.00234 | 81 ft | 17 kts | 239° |
| 2026-05-04 07:52 | 14.50005 | 121.00126 | 81 ft | 17 kts | 240° |
| 2026-05-04 07:52 | 14.49945 | 121.00015 | 82 ft | 17 kts | 242° |
| 2026-05-04 07:53 | 14.49882 | 120.99963 | 82 ft | 8 kts | 169° |
| 2026-05-04 07:54 | 14.51192 | 121.02553 | 525 ft | 174 kts | 63° |
| 2026-05-04 07:55 | 14.51846 | 121.03735 | 1463 ft | 163 kts | 63° |
| 2026-05-04 07:55 | 14.52398 | 121.04728 | 2112 ft | 155 kts | 62° |
| 2026-05-04 07:55 | 14.52958 | 121.05736 | 2356 ft | 168 kts | 61° |
| 2026-05-04 07:55 | 14.53467 | 121.06893 | 2600 ft | 181 kts | 82° |
| 2026-05-04 07:56 | 14.53115 | 121.08168 | 2818 ft | 202 kts | 127° |
| 2026-05-04 07:56 | 14.51805 | 121.08917 | 3009 ft | 234 kts | 169° |
| 2026-05-04 07:56 | 14.50075 | 121.08881 | 3325 ft | 254 kts | 181° |
| 2026-05-04 07:56 | 14.48253 | 121.08706 | 3635 ft | 272 kts | 182° |
| 2026-05-04 07:57 | 14.46333 | 121.08534 | 4117 ft | 281 kts | 182° |
| 2026-05-04 07:57 | 14.44351 | 121.08377 | 4812 ft | 283 kts | 182° |
| 2026-05-04 07:57 | 14.42370 | 121.08240 | 5524 ft | 285 kts | 181° |
| 2026-05-04 07:57 | 14.40371 | 121.08115 | 6252 ft | 288 kts | 181° |
| 2026-05-04 07:58 | 14.38374 | 121.07994 | 6950 ft | 291 kts | 181° |
| 2026-05-04 07:58 | 14.36309 | 121.07874 | 7644 ft | 296 kts | 181° |
| 2026-05-04 07:58 | 14.34254 | 121.07758 | 8334 ft | 300 kts | 180° |
| 2026-05-04 07:58 | 14.32141 | 121.07640 | 9027 ft | 304 kts | 181° |
| 2026-05-04 07:59 | 14.30005 | 121.07522 | 9711 ft | 308 kts | 180° |
| 2026-05-04 07:59 | 14.27829 | 121.07404 | 10389 ft | 311 kts | 180° |
| 2026-05-04 07:59 | 14.25635 | 121.07285 | 10773 ft | 325 kts | 180° |
| 2026-05-04 07:59 | 14.23300 | 121.07160 | 11058 ft | 342 kts | 181° |
| 2026-05-04 08:00 | 14.20879 | 121.07031 | 11317 ft | 357 kts | 181° |
| 2026-05-04 08:00 | 14.18314 | 121.06892 | 11586 ft | 371 kts | 181° |
| 2026-05-04 08:00 | 14.15708 | 121.06749 | 12067 ft | 377 kts | 181° |
| 2026-05-04 08:02 | 13.97005 | 121.05726 | 15721 ft | 392 kts | 181° |
| 2026-05-04 08:02 | 13.94258 | 121.05577 | 16166 ft | 395 kts | 181° |
| 2026-05-04 08:02 | 13.91498 | 121.05427 | 16600 ft | 397 kts | 181° |
| 2026-05-04 08:03 | 13.88711 | 121.05275 | 17024 ft | 400 kts | 181° |
| 2026-05-04 08:03 | 13.85913 | 121.05124 | 17427 ft | 403 kts | 181° |
| 2026-05-04 08:03 | 13.83097 | 121.04971 | 17836 ft | 405 kts | 181° |
| 2026-05-04 08:03 | 13.80255 | 121.04817 | 18256 ft | 407 kts | 182° |
| 2026-05-04 08:04 | 13.77436 | 121.04662 | 18647 ft | 409 kts | 181° |
| 2026-05-04 08:04 | 13.74549 | 121.04506 | 19011 ft | 411 kts | 181° |
| 2026-05-04 08:04 | 13.71686 | 121.04349 | 19392 ft | 413 kts | 181° |
| 2026-05-04 08:04 | 13.68819 | 121.04195 | 19775 ft | 414 kts | 182° |
| 2026-05-04 08:05 | 13.65921 | 121.04037 | 20138 ft | 416 kts | 182° |
| 2026-05-04 08:05 | 13.62996 | 121.03878 | 20510 ft | 418 kts | 182° |
| 2026-05-04 08:05 | 13.60078 | 121.03718 | 20895 ft | 419 kts | 182° |
| 2026-05-04 08:05 | 13.57157 | 121.03560 | 21233 ft | 421 kts | 182° |
| 2026-05-04 08:06 | 13.54237 | 121.03410 | 21552 ft | 423 kts | 180° |
| 2026-05-04 08:06 | 13.51273 | 121.03681 | 21848 ft | 424 kts | 167° |
| 2026-05-04 08:06 | 13.48498 | 121.04629 | 22175 ft | 423 kts | 154° |
| 2026-05-04 08:06 | 13.45942 | 121.06176 | 22528 ft | 423 kts | 145° |
| 2026-05-04 08:08 | 13.28670 | 121.18415 | 24612 ft | 436 kts | 145° |
| 2026-05-04 08:08 | 13.26182 | 121.20161 | 24880 ft | 438 kts | 145° |
| 2026-05-04 08:10 | 13.05739 | 121.34483 | 27185 ft | 444 kts | 145° |
| 2026-05-04 08:11 | 13.03176 | 121.36278 | 27485 ft | 444 kts | 145° |
| 2026-05-04 08:11 | 12.98055 | 121.39861 | 27999 ft | 446 kts | 145° |
| 2026-05-04 08:11 | 12.95483 | 121.41660 | 28263 ft | 447 kts | 145° |
| 2026-05-04 08:12 | 12.92884 | 121.43478 | 28520 ft | 447 kts | 145° |
| 2026-05-04 08:12 | 12.90325 | 121.45267 | 28774 ft | 448 kts | 145° |
| 2026-05-04 08:12 | 12.84826 | 121.49110 | 28865 ft | 450 kts | 145° |
| 2026-05-04 08:13 | 12.79516 | 121.52818 | 28856 ft | 450 kts | 144° |
| 2026-05-04 08:13 | 12.74250 | 121.56495 | 28853 ft | 450 kts | 144° |
| 2026-05-04 08:14 | 12.69001 | 121.60158 | 28852 ft | 450 kts | 144° |
| 2026-05-04 08:16 | 12.48068 | 121.74748 | 25906 ft | 439 kts | 144° |
| 2026-05-04 08:16 | 12.45520 | 121.76523 | 25422 ft | 430 kts | 144° |
| 2026-05-04 08:16 | 12.43008 | 121.78271 | 25003 ft | 421 kts | 144° |
| 2026-05-04 08:17 | 12.40582 | 121.79961 | 24686 ft | 409 kts | 144° |
| 2026-05-04 08:17 | 12.38260 | 121.81575 | 24530 ft | 395 kts | 144° |
| 2026-05-04 08:17 | 12.36044 | 121.83185 | 24368 ft | 381 kts | 141° |
| 2026-05-04 08:17 | 12.33942 | 121.84866 | 24035 ft | 372 kts | 140° |
| 2026-05-04 08:19 | 12.20093 | 121.96115 | 20915 ft | 351 kts | 140° |
| 2026-05-04 08:19 | 12.18135 | 121.97704 | 20487 ft | 347 kts | 140° |
| 2026-05-04 08:20 | 12.16221 | 121.99256 | 20072 ft | 344 kts | 140° |
| 2026-05-04 08:20 | 12.14334 | 122.00787 | 19660 ft | 341 kts | 139° |
| 2026-05-04 08:20 | 12.12456 | 122.02309 | 19245 ft | 338 kts | 139° |
| 2026-05-04 08:20 | 12.10577 | 122.03830 | 18830 ft | 336 kts | 139° |
| 2026-05-04 08:21 | 12.08844 | 122.05447 | 18410 ft | 332 kts | 129° |
| 2026-05-04 08:21 | 12.07469 | 122.07350 | 17994 ft | 327 kts | 118° |
| 2026-05-04 08:21 | 12.06379 | 122.09431 | 17588 ft | 324 kts | 115° |
| 2026-05-04 08:21 | 12.05365 | 122.11485 | 17195 ft | 322 kts | 115° |
| 2026-05-04 08:22 | 12.04350 | 122.13549 | 16805 ft | 319 kts | 115° |
| 2026-05-04 08:22 | 12.03364 | 122.15545 | 16424 ft | 317 kts | 115° |
| 2026-05-04 08:24 | 11.96445 | 122.29434 | 13666 ft | 305 kts | 115° |
| 2026-05-04 08:24 | 11.95482 | 122.31362 | 13285 ft | 303 kts | 115° |
| 2026-05-04 08:24 | 11.94520 | 122.33287 | 12903 ft | 301 kts | 115° |
| 2026-05-04 08:24 | 11.93569 | 122.35188 | 12527 ft | 299 kts | 115° |
| 2026-05-04 08:25 | 11.92495 | 122.37338 | 12102 ft | 297 kts | 115° |
| 2026-05-04 08:25 | 11.91545 | 122.39236 | 11720 ft | 295 kts | 115° |
| 2026-05-04 08:25 | 11.90611 | 122.41106 | 11343 ft | 293 kts | 115° |
| 2026-05-04 08:25 | 11.89661 | 122.42975 | 10967 ft | 292 kts | 117° |
| 2026-05-04 08:26 | 11.88550 | 122.44900 | 10561 ft | 290 kts | 119° |
| 2026-05-04 08:27 | 11.77895 | 122.49583 | 7940 ft | 289 kts | 211° |
| 2026-05-04 08:28 | 11.76168 | 122.48467 | 7582 ft | 288 kts | 211° |
| 2026-05-04 08:28 | 11.74440 | 122.47372 | 7217 ft | 287 kts | 210° |
| 2026-05-04 08:28 | 11.72724 | 122.46301 | 6857 ft | 287 kts | 210° |
| 2026-05-04 08:28 | 11.70982 | 122.45222 | 6494 ft | 286 kts | 210° |
| 2026-05-04 08:29 | 11.69298 | 122.44183 | 6152 ft | 284 kts | 209° |
| 2026-05-04 08:29 | 11.67598 | 122.43135 | 5822 ft | 282 kts | 209° |
| 2026-05-04 08:29 | 11.65911 | 122.42097 | 5486 ft | 280 kts | 209° |
| 2026-05-04 08:31 | 11.54898 | 122.35306 | 4089 ft | 232 kts | 210° |
| 2026-05-04 08:33 | 11.56747 | 122.27237 | 2912 ft | 196 kts | 359° |
| 2026-05-04 08:33 | 11.58051 | 122.27312 | 2768 ft | 182 kts | 15° |
| 2026-05-04 08:35 | 11.63424 | 122.32281 | 1183 ft | 131 kts | 52° |
| 2026-05-04 08:35 | 11.64022 | 122.32984 | 1003 ft | 130 kts | 51° |
| 2026-05-04 08:35 | 11.64617 | 122.33679 | 828 ft | 130 kts | 51° |
| 2026-05-04 08:35 | 11.65218 | 122.34380 | 649 ft | 130 kts | 49° |
| 2026-05-04 08:37 | 11.68248 | 122.37894 | 34 ft | 37 kts | 49° |
| 2026-05-04 08:37 | 11.68403 | 122.38074 | 33 ft | 25 kts | 49° |
| 2026-05-04 08:37 | 11.68450 | 122.38127 | 33 ft | 3 kts | 44° |
| 2026-05-04 08:38 | 11.68465 | 122.38132 | 33 ft | 2 kts | 345° |
| 2026-05-04 08:38 | 11.68482 | 122.38119 | 34 ft | 3 kts | 319° |
| 2026-05-04 08:38 | 11.68494 | 122.38104 | 33 ft | 0 kts | 296° |
| 2026-05-04 08:40 | 11.68507 | 122.38059 | 33 ft | 0 kts | 319° |